sensor_id;sensor_type;location;lat;lon;timestamp;P1;durP1;ratioP1;P2;durP2;ratioP2
35578;SDS011;21687;48.900;9.188;2023-02-16T00:00:44;65.17;;;37.23;;
35578;SDS011;21687;48.900;9.188;2023-02-16T00:03:15;65.67;;;36.50;;
35578;SDS011;21687;48.900;9.188;2023-02-16T00:05:46;63.03;;;35.77;;
35578;SDS011;21687;48.900;9.188;2023-02-16T00:08:13;59.70;;;35.03;;
35578;SDS011;21687;48.900;9.188;2023-02-16T00:10:39;67.03;;;38.10;;
35578;SDS011;21687;48.900;9.188;2023-02-16T00:13:26;67.53;;;37.10;;
35578;SDS011;21687;48.900;9.188;2023-02-16T00:18:49;70.33;;;39.13;;
35578;SDS011;21687;48.900;9.188;2023-02-16T00:21:16;72.00;;;37.97;;
35578;SDS011;21687;48.900;9.188;2023-02-16T00:23:43;61.53;;;36.13;;
35578;SDS011;21687;48.900;9.188;2023-02-16T00:26:12;62.00;;;35.70;;
35578;SDS011;21687;48.900;9.188;2023-02-16T00:28:40;66.53;;;36.93;;
35578;SDS011;21687;48.900;9.188;2023-02-16T00:31:10;57.83;;;35.60;;
35578;SDS011;21687;48.900;9.188;2023-02-16T00:33:46;67.63;;;38.07;;
35578;SDS011;21687;48.900;9.188;2023-02-16T00:36:13;68.77;;;38.00;;
35578;SDS011;21687;48.900;9.188;2023-02-16T00:38:40;63.20;;;36.53;;
35578;SDS011;21687;48.900;9.188;2023-02-16T00:41:10;64.90;;;37.50;;
35578;SDS011;21687;48.900;9.188;2023-02-16T00:44:01;66.60;;;36.67;;
35578;SDS011;21687;48.900;9.188;2023-02-16T00:46:28;62.20;;;36.17;;
35578;SDS011;21687;48.900;9.188;2023-02-16T00:48:55;67.53;;;36.40;;
35578;SDS011;21687;48.900;9.188;2023-02-16T00:51:21;68.10;;;37.07;;
35578;SDS011;21687;48.900;9.188;2023-02-16T00:53:47;66.10;;;36.20;;
35578;SDS011;21687;48.900;9.188;2023-02-16T00:56:15;64.43;;;36.10;;
35578;SDS011;21687;48.900;9.188;2023-02-16T00:58:44;66.13;;;36.97;;
35578;SDS011;21687;48.900;9.188;2023-02-16T01:01:13;58.73;;;34.93;;
35578;SDS011;21687;48.900;9.188;2023-02-16T01:03:41;65.80;;;37.87;;
35578;SDS011;21687;48.900;9.188;2023-02-16T01:06:09;65.50;;;35.87;;
35578;SDS011;21687;48.900;9.188;2023-02-16T01:08:54;54.50;;;34.30;;
35578;SDS011;21687;48.900;9.188;2023-02-16T01:11:54;57.80;;;34.50;;
35578;SDS011;21687;48.900;9.188;2023-02-16T01:14:20;61.17;;;34.33;;
35578;SDS011;21687;48.900;9.188;2023-02-16T01:16:46;62.10;;;34.67;;
35578;SDS011;21687;48.900;9.188;2023-02-16T01:19:12;63.63;;;36.23;;
35578;SDS011;21687;48.900;9.188;2023-02-16T01:21:39;60.57;;;35.53;;
35578;SDS011;21687;48.900;9.188;2023-02-16T01:24:05;59.77;;;33.50;;
35578;SDS011;21687;48.900;9.188;2023-02-16T01:26:31;64.43;;;36.40;;
35578;SDS011;21687;48.900;9.188;2023-02-16T01:29:03;60.27;;;35.13;;
35578;SDS011;21687;48.900;9.188;2023-02-16T01:31:30;64.77;;;35.87;;
35578;SDS011;21687;48.900;9.188;2023-02-16T01:33:56;65.60;;;36.57;;
35578;SDS011;21687;48.900;9.188;2023-02-16T01:36:32;61.60;;;34.33;;
35578;SDS011;21687;48.900;9.188;2023-02-16T01:39:01;61.10;;;35.53;;
35578;SDS011;21687;48.900;9.188;2023-02-16T01:44:04;57.43;;;34.30;;
35578;SDS011;21687;48.900;9.188;2023-02-16T01:46:44;61.23;;;34.87;;
35578;SDS011;21687;48.900;9.188;2023-02-16T01:49:22;59.60;;;34.43;;
35578;SDS011;21687;48.900;9.188;2023-02-16T01:57:03;62.53;;;35.00;;
35578;SDS011;21687;48.900;9.188;2023-02-16T02:02:23;62.77;;;34.90;;
35578;SDS011;21687;48.900;9.188;2023-02-16T02:04:56;63.83;;;35.47;;
35578;SDS011;21687;48.900;9.188;2023-02-16T02:13:14;59.50;;;34.07;;
35578;SDS011;21687;48.900;9.188;2023-02-16T02:15:56;63.23;;;35.20;;
35578;SDS011;21687;48.900;9.188;2023-02-16T02:18:23;56.33;;;33.43;;
35578;SDS011;21687;48.900;9.188;2023-02-16T02:20:54;59.10;;;33.50;;
35578;SDS011;21687;48.900;9.188;2023-02-16T02:40:39;62.93;;;35.07;;
35578;SDS011;21687;48.900;9.188;2023-02-16T02:43:36;58.57;;;34.97;;
35578;SDS011;21687;48.900;9.188;2023-02-16T02:46:20;61.13;;;35.20;;
35578;SDS011;21687;48.900;9.188;2023-02-16T02:48:57;64.27;;;34.07;;
35578;SDS011;21687;48.900;9.188;2023-02-16T02:51:23;64.70;;;34.27;;
35578;SDS011;21687;48.900;9.188;2023-02-16T02:59:52;62.93;;;33.27;;
35578;SDS011;21687;48.900;9.188;2023-02-16T03:02:50;61.23;;;32.47;;
35578;SDS011;21687;48.900;9.188;2023-02-16T03:05:22;62.70;;;34.00;;
35578;SDS011;21687;48.900;9.188;2023-02-16T03:07:52;57.60;;;33.30;;
35578;SDS011;21687;48.900;9.188;2023-02-16T03:10:30;64.37;;;33.87;;
35578;SDS011;21687;48.900;9.188;2023-02-16T03:13:25;55.00;;;32.97;;
35578;SDS011;21687;48.900;9.188;2023-02-16T03:15:57;54.77;;;31.60;;
35578;SDS011;21687;48.900;9.188;2023-02-16T03:18:29;57.50;;;31.27;;
35578;SDS011;21687;48.900;9.188;2023-02-16T03:21:17;56.20;;;31.20;;
35578;SDS011;21687;48.900;9.188;2023-02-16T03:24:02;54.07;;;31.13;;
35578;SDS011;21687;48.900;9.188;2023-02-16T03:26:51;54.77;;;31.43;;
35578;SDS011;21687;48.900;9.188;2023-02-16T03:29:38;61.67;;;30.93;;
35578;SDS011;21687;48.900;9.188;2023-02-16T03:32:04;61.33;;;32.93;;
35578;SDS011;21687;48.900;9.188;2023-02-16T03:34:31;57.30;;;32.37;;
35578;SDS011;21687;48.900;9.188;2023-02-16T03:37:00;57.47;;;31.50;;
35578;SDS011;21687;48.900;9.188;2023-02-16T03:39:27;56.57;;;30.53;;
35578;SDS011;21687;48.900;9.188;2023-02-16T03:41:55;61.93;;;31.73;;
35578;SDS011;21687;48.900;9.188;2023-02-16T03:44:22;53.13;;;29.63;;
35578;SDS011;21687;48.900;9.188;2023-02-16T03:46:49;57.80;;;31.70;;
35578;SDS011;21687;48.900;9.188;2023-02-16T03:49:16;55.13;;;30.27;;
35578;SDS011;21687;48.900;9.188;2023-02-16T03:51:43;50.97;;;30.20;;
35578;SDS011;21687;48.900;9.188;2023-02-16T03:54:09;54.13;;;29.70;;
35578;SDS011;21687;48.900;9.188;2023-02-16T03:56:36;47.70;;;28.57;;
35578;SDS011;21687;48.900;9.188;2023-02-16T03:59:02;53.97;;;30.27;;
35578;SDS011;21687;48.900;9.188;2023-02-16T04:01:29;47.83;;;27.53;;
35578;SDS011;21687;48.900;9.188;2023-02-16T04:03:55;51.97;;;29.30;;
35578;SDS011;21687;48.900;9.188;2023-02-16T04:06:21;44.23;;;26.23;;
35578;SDS011;21687;48.900;9.188;2023-02-16T04:08:47;47.77;;;26.63;;
35578;SDS011;21687;48.900;9.188;2023-02-16T04:11:14;45.50;;;27.13;;
35578;SDS011;21687;48.900;9.188;2023-02-16T04:13:59;44.93;;;26.17;;
35578;SDS011;21687;48.900;9.188;2023-02-16T04:16:25;51.40;;;27.00;;
35578;SDS011;21687;48.900;9.188;2023-02-16T04:18:51;43.17;;;26.47;;
35578;SDS011;21687;48.900;9.188;2023-02-16T04:21:18;48.07;;;28.60;;
35578;SDS011;21687;48.900;9.188;2023-02-16T04:23:44;53.57;;;28.50;;
35578;SDS011;21687;48.900;9.188;2023-02-16T04:26:10;45.13;;;27.43;;
35578;SDS011;21687;48.900;9.188;2023-02-16T04:28:36;53.63;;;28.43;;
35578;SDS011;21687;48.900;9.188;2023-02-16T04:31:02;50.37;;;29.43;;
35578;SDS011;21687;48.900;9.188;2023-02-16T04:33:29;48.30;;;27.00;;
35578;SDS011;21687;48.900;9.188;2023-02-16T04:35:55;50.77;;;26.57;;
35578;SDS011;21687;48.900;9.188;2023-02-16T04:38:21;45.63;;;26.90;;
35578;SDS011;21687;48.900;9.188;2023-02-16T04:40:47;51.00;;;26.60;;
35578;SDS011;21687;48.900;9.188;2023-02-16T04:43:13;48.80;;;26.80;;
35578;SDS011;21687;48.900;9.188;2023-02-16T04:45:40;48.40;;;27.47;;
35578;SDS011;21687;48.900;9.188;2023-02-16T04:48:06;52.03;;;28.53;;
35578;SDS011;21687;48.900;9.188;2023-02-16T04:50:32;53.93;;;29.27;;
35578;SDS011;21687;48.900;9.188;2023-02-16T04:52:58;47.63;;;27.30;;
35578;SDS011;21687;48.900;9.188;2023-02-16T04:55:24;52.80;;;28.10;;
35578;SDS011;21687;48.900;9.188;2023-02-16T04:57:51;50.27;;;28.57;;
35578;SDS011;21687;48.900;9.188;2023-02-16T05:00:17;51.13;;;28.00;;
35578;SDS011;21687;48.900;9.188;2023-02-16T05:02:44;51.00;;;27.50;;
35578;SDS011;21687;48.900;9.188;2023-02-16T05:05:10;51.30;;;27.97;;
35578;SDS011;21687;48.900;9.188;2023-02-16T05:07:36;49.43;;;27.70;;
35578;SDS011;21687;48.900;9.188;2023-02-16T05:10:03;53.60;;;28.30;;
35578;SDS011;21687;48.900;9.188;2023-02-16T05:12:30;51.00;;;27.50;;
35578;SDS011;21687;48.900;9.188;2023-02-16T05:15:15;48.10;;;26.27;;
35578;SDS011;21687;48.900;9.188;2023-02-16T05:17:41;52.13;;;26.40;;
35578;SDS011;21687;48.900;9.188;2023-02-16T05:20:07;54.73;;;28.30;;
35578;SDS011;21687;48.900;9.188;2023-02-16T05:22:34;48.33;;;26.07;;
35578;SDS011;21687;48.900;9.188;2023-02-16T05:25:03;51.80;;;26.17;;
35578;SDS011;21687;48.900;9.188;2023-02-16T05:27:30;47.90;;;26.20;;
35578;SDS011;21687;48.900;9.188;2023-02-16T05:29:57;44.87;;;24.60;;
35578;SDS011;21687;48.900;9.188;2023-02-16T05:32:23;44.37;;;25.50;;
35578;SDS011;21687;48.900;9.188;2023-02-16T05:34:50;45.00;;;25.77;;
35578;SDS011;21687;48.900;9.188;2023-02-16T05:37:16;46.97;;;26.13;;
35578;SDS011;21687;48.900;9.188;2023-02-16T05:39:43;50.83;;;26.60;;
35578;SDS011;21687;48.900;9.188;2023-02-16T05:42:09;45.33;;;26.00;;
35578;SDS011;21687;48.900;9.188;2023-02-16T05:44:36;41.07;;;25.23;;
35578;SDS011;21687;48.900;9.188;2023-02-16T05:47:02;47.80;;;26.37;;
35578;SDS011;21687;48.900;9.188;2023-02-16T05:49:29;48.00;;;26.30;;
35578;SDS011;21687;48.900;9.188;2023-02-16T05:51:55;44.80;;;25.07;;
35578;SDS011;21687;48.900;9.188;2023-02-16T05:54:21;45.40;;;26.43;;
35578;SDS011;21687;48.900;9.188;2023-02-16T05:56:48;47.17;;;25.63;;
35578;SDS011;21687;48.900;9.188;2023-02-16T05:59:15;41.07;;;24.23;;
35578;SDS011;21687;48.900;9.188;2023-02-16T06:01:42;44.17;;;26.00;;
35578;SDS011;21687;48.900;9.188;2023-02-16T06:04:13;45.87;;;24.97;;
35578;SDS011;21687;48.900;9.188;2023-02-16T06:06:39;44.57;;;24.00;;
35578;SDS011;21687;48.900;9.188;2023-02-16T06:09:06;43.63;;;24.90;;
35578;SDS011;21687;48.900;9.188;2023-02-16T06:11:33;48.40;;;25.27;;
35578;SDS011;21687;48.900;9.188;2023-02-16T06:14:00;43.53;;;26.20;;
35578;SDS011;21687;48.900;9.188;2023-02-16T06:16:32;44.50;;;25.43;;
35578;SDS011;21687;48.900;9.188;2023-02-16T06:18:59;41.53;;;24.40;;
35578;SDS011;21687;48.900;9.188;2023-02-16T06:21:26;47.57;;;27.13;;
35578;SDS011;21687;48.900;9.188;2023-02-16T06:23:52;55.93;;;26.63;;
35578;SDS011;21687;48.900;9.188;2023-02-16T06:26:18;44.93;;;26.37;;
35578;SDS011;21687;48.900;9.188;2023-02-16T06:28:45;44.80;;;24.50;;
35578;SDS011;21687;48.900;9.188;2023-02-16T06:31:11;48.13;;;26.03;;
35578;SDS011;21687;48.900;9.188;2023-02-16T06:33:38;50.07;;;25.07;;
35578;SDS011;21687;48.900;9.188;2023-02-16T06:36:04;49.87;;;26.53;;
35578;SDS011;21687;48.900;9.188;2023-02-16T06:38:31;47.27;;;26.13;;
35578;SDS011;21687;48.900;9.188;2023-02-16T06:40:57;48.40;;;25.27;;
35578;SDS011;21687;48.900;9.188;2023-02-16T06:43:23;46.03;;;25.37;;
35578;SDS011;21687;48.900;9.188;2023-02-16T06:45:50;44.27;;;24.80;;
35578;SDS011;21687;48.900;9.188;2023-02-16T06:48:16;49.17;;;25.17;;
35578;SDS011;21687;48.900;9.188;2023-02-16T06:50:42;47.63;;;24.03;;
35578;SDS011;21687;48.900;9.188;2023-02-16T06:53:08;43.43;;;24.17;;
35578;SDS011;21687;48.900;9.188;2023-02-16T06:55:35;42.20;;;23.73;;
35578;SDS011;21687;48.900;9.188;2023-02-16T06:58:02;50.17;;;26.20;;
35578;SDS011;21687;48.900;9.188;2023-02-16T07:00:29;43.93;;;25.17;;
35578;SDS011;21687;48.900;9.188;2023-02-16T07:02:56;51.10;;;26.87;;
35578;SDS011;21687;48.900;9.188;2023-02-16T07:05:22;45.87;;;25.90;;
35578;SDS011;21687;48.900;9.188;2023-02-16T07:07:49;47.30;;;26.90;;
35578;SDS011;21687;48.900;9.188;2023-02-16T07:10:15;46.83;;;25.73;;
35578;SDS011;21687;48.900;9.188;2023-02-16T07:12:42;44.53;;;25.10;;
35578;SDS011;21687;48.900;9.188;2023-02-16T07:15:08;42.47;;;24.30;;
35578;SDS011;21687;48.900;9.188;2023-02-16T07:17:34;48.17;;;25.27;;
35578;SDS011;21687;48.900;9.188;2023-02-16T07:20:03;44.40;;;24.47;;
35578;SDS011;21687;48.900;9.188;2023-02-16T07:22:30;45.30;;;24.43;;
35578;SDS011;21687;48.900;9.188;2023-02-16T07:24:57;45.30;;;24.53;;
35578;SDS011;21687;48.900;9.188;2023-02-16T07:27:24;41.83;;;24.67;;
35578;SDS011;21687;48.900;9.188;2023-02-16T07:29:51;48.43;;;25.50;;
35578;SDS011;21687;48.900;9.188;2023-02-16T07:32:17;46.30;;;24.80;;
35578;SDS011;21687;48.900;9.188;2023-02-16T07:34:44;42.70;;;25.47;;
35578;SDS011;21687;48.900;9.188;2023-02-16T07:37:10;45.80;;;24.83;;
35578;SDS011;21687;48.900;9.188;2023-02-16T07:39:36;50.43;;;26.77;;
35578;SDS011;21687;48.900;9.188;2023-02-16T07:42:02;43.83;;;24.63;;
35578;SDS011;21687;48.900;9.188;2023-02-16T07:44:29;38.27;;;24.17;;
35578;SDS011;21687;48.900;9.188;2023-02-16T07:46:55;43.83;;;25.13;;
35578;SDS011;21687;48.900;9.188;2023-02-16T07:49:21;40.50;;;23.30;;
35578;SDS011;21687;48.900;9.188;2023-02-16T07:51:48;43.50;;;25.27;;
35578;SDS011;21687;48.900;9.188;2023-02-16T07:54:14;41.23;;;24.83;;
35578;SDS011;21687;48.900;9.188;2023-02-16T07:56:40;46.03;;;26.23;;
35578;SDS011;21687;48.900;9.188;2023-02-16T07:59:06;42.13;;;25.07;;
35578;SDS011;21687;48.900;9.188;2023-02-16T08:01:33;47.13;;;25.50;;
35578;SDS011;21687;48.900;9.188;2023-02-16T08:03:59;41.87;;;24.57;;
35578;SDS011;21687;48.900;9.188;2023-02-16T08:06:25;46.40;;;22.60;;
35578;SDS011;21687;48.900;9.188;2023-02-16T08:08:51;41.77;;;24.87;;
35578;SDS011;21687;48.900;9.188;2023-02-16T08:11:19;37.40;;;23.43;;
35578;SDS011;21687;48.900;9.188;2023-02-16T08:13:47;51.83;;;24.93;;
35578;SDS011;21687;48.900;9.188;2023-02-16T08:16:17;40.63;;;24.90;;
35578;SDS011;21687;48.900;9.188;2023-02-16T08:18:46;48.67;;;25.17;;
35578;SDS011;21687;48.900;9.188;2023-02-16T08:21:19;38.90;;;23.93;;
35578;SDS011;21687;48.900;9.188;2023-02-16T08:23:57;45.00;;;25.57;;
35578;SDS011;21687;48.900;9.188;2023-02-16T08:26:35;44.77;;;27.00;;
35578;SDS011;21687;48.900;9.188;2023-02-16T08:29:05;45.40;;;24.50;;
35578;SDS011;21687;48.900;9.188;2023-02-16T08:31:40;44.13;;;25.53;;
35578;SDS011;21687;48.900;9.188;2023-02-16T08:34:06;42.80;;;24.83;;
35578;SDS011;21687;48.900;9.188;2023-02-16T08:36:35;39.30;;;24.13;;
35578;SDS011;21687;48.900;9.188;2023-02-16T08:39:07;44.67;;;26.23;;
35578;SDS011;21687;48.900;9.188;2023-02-16T08:41:37;45.53;;;26.97;;
35578;SDS011;21687;48.900;9.188;2023-02-16T08:44:03;40.97;;;25.97;;
35578;SDS011;21687;48.900;9.188;2023-02-16T08:46:31;50.37;;;27.53;;
35578;SDS011;21687;48.900;9.188;2023-02-16T08:48:59;45.67;;;25.10;;
35578;SDS011;21687;48.900;9.188;2023-02-16T08:51:26;44.50;;;26.60;;
35578;SDS011;21687;48.900;9.188;2023-02-16T08:53:59;45.20;;;26.93;;
35578;SDS011;21687;48.900;9.188;2023-02-16T08:56:27;50.80;;;28.27;;
35578;SDS011;21687;48.900;9.188;2023-02-16T08:58:54;54.53;;;27.87;;
35578;SDS011;21687;48.900;9.188;2023-02-16T09:01:21;50.83;;;28.33;;
35578;SDS011;21687;48.900;9.188;2023-02-16T09:03:48;41.27;;;27.17;;
35578;SDS011;21687;48.900;9.188;2023-02-16T09:06:15;43.50;;;26.67;;
35578;SDS011;21687;48.900;9.188;2023-02-16T09:08:44;45.00;;;27.27;;
35578;SDS011;21687;48.900;9.188;2023-02-16T09:11:17;52.37;;;27.60;;
35578;SDS011;21687;48.900;9.188;2023-02-16T09:13:45;42.83;;;26.77;;
35578;SDS011;21687;48.900;9.188;2023-02-16T09:16:16;45.40;;;26.60;;
35578;SDS011;21687;48.900;9.188;2023-02-16T09:18:44;43.83;;;26.60;;
35578;SDS011;21687;48.900;9.188;2023-02-16T09:21:13;45.73;;;27.13;;
35578;SDS011;21687;48.900;9.188;2023-02-16T09:23:41;41.63;;;26.03;;
35578;SDS011;21687;48.900;9.188;2023-02-16T09:26:14;41.53;;;26.10;;
35578;SDS011;21687;48.900;9.188;2023-02-16T09:28:42;43.07;;;24.47;;
35578;SDS011;21687;48.900;9.188;2023-02-16T09:31:17;41.77;;;25.13;;
35578;SDS011;21687;48.900;9.188;2023-02-16T09:33:47;36.27;;;23.90;;
35578;SDS011;21687;48.900;9.188;2023-02-16T09:36:13;34.20;;;22.63;;
35578;SDS011;21687;48.900;9.188;2023-02-16T09:38:40;37.43;;;22.90;;
35578;SDS011;21687;48.900;9.188;2023-02-16T09:41:07;35.73;;;21.30;;
35578;SDS011;21687;48.900;9.188;2023-02-16T09:43:48;35.03;;;21.63;;
35578;SDS011;21687;48.900;9.188;2023-02-16T09:46:21;33.47;;;21.30;;
35578;SDS011;21687;48.900;9.188;2023-02-16T09:48:51;29.63;;;19.90;;
35578;SDS011;21687;48.900;9.188;2023-02-16T09:51:28;30.70;;;18.33;;
35578;SDS011;21687;48.900;9.188;2023-02-16T09:54:04;32.67;;;19.10;;
35578;SDS011;21687;48.900;9.188;2023-02-16T09:57:00;30.90;;;17.47;;
35578;SDS011;21687;48.900;9.188;2023-02-16T09:59:49;30.43;;;16.57;;
35578;SDS011;21687;48.900;9.188;2023-02-16T10:05:29;27.03;;;15.63;;
35578;SDS011;21687;48.900;9.188;2023-02-16T10:08:00;26.67;;;17.03;;
35578;SDS011;21687;48.900;9.188;2023-02-16T10:10:41;36.50;;;15.57;;
35578;SDS011;21687;48.900;9.188;2023-02-16T10:13:56;22.50;;;15.13;;
35578;SDS011;21687;48.900;9.188;2023-02-16T10:16:28;23.67;;;15.10;;
35578;SDS011;21687;48.900;9.188;2023-02-16T10:19:01;24.27;;;14.33;;
35578;SDS011;21687;48.900;9.188;2023-02-16T10:21:33;21.23;;;13.30;;
35578;SDS011;21687;48.900;9.188;2023-02-16T10:24:01;24.20;;;14.33;;
35578;SDS011;21687;48.900;9.188;2023-02-16T10:26:34;22.23;;;14.43;;
35578;SDS011;21687;48.900;9.188;2023-02-16T10:29:14;20.17;;;13.07;;
35578;SDS011;21687;48.900;9.188;2023-02-16T10:34:48;26.27;;;14.93;;
35578;SDS011;21687;48.900;9.188;2023-02-16T10:40:15;21.73;;;12.47;;
35578;SDS011;21687;48.900;9.188;2023-02-16T10:45:43;24.17;;;12.57;;
35578;SDS011;21687;48.900;9.188;2023-02-16T10:48:16;20.80;;;11.80;;
35578;SDS011;21687;48.900;9.188;2023-02-16T10:50:56;15.87;;;11.10;;
35578;SDS011;21687;48.900;9.188;2023-02-16T10:55:56;18.90;;;11.53;;
35578;SDS011;21687;48.900;9.188;2023-02-16T10:58:24;16.87;;;10.90;;
35578;SDS011;21687;48.900;9.188;2023-02-16T11:01:00;17.00;;;10.30;;
35578;SDS011;21687;48.900;9.188;2023-02-16T11:03:43;15.00;;;10.63;;
35578;SDS011;21687;48.900;9.188;2023-02-16T11:08:53;15.20;;;9.80;;
35578;SDS011;21687;48.900;9.188;2023-02-16T11:11:25;15.50;;;9.97;;
35578;SDS011;21687;48.900;9.188;2023-02-16T11:14:37;13.53;;;9.30;;
35578;SDS011;21687;48.900;9.188;2023-02-16T11:17:00;14.13;;;8.67;;
35578;SDS011;21687;48.900;9.188;2023-02-16T11:19:38;15.43;;;9.43;;
35578;SDS011;21687;48.900;9.188;2023-02-16T11:27:49;11.93;;;8.63;;
35578;SDS011;21687;48.900;9.188;2023-02-16T11:30:34;18.97;;;9.47;;
35578;SDS011;21687;48.900;9.188;2023-02-16T11:33:20;14.20;;;8.80;;
35578;SDS011;21687;48.900;9.188;2023-02-16T11:35:51;10.30;;;7.07;;
35578;SDS011;21687;48.900;9.188;2023-02-16T11:40:58;13.43;;;6.97;;
35578;SDS011;21687;48.900;9.188;2023-02-16T11:43:27;10.57;;;6.47;;
35578;SDS011;21687;48.900;9.188;2023-02-16T11:46:13;10.33;;;6.50;;
35578;SDS011;21687;48.900;9.188;2023-02-16T11:48:42;10.50;;;5.87;;
35578;SDS011;21687;48.900;9.188;2023-02-16T11:51:09;11.43;;;6.07;;
35578;SDS011;21687;48.900;9.188;2023-02-16T11:53:37;8.27;;;6.27;;
35578;SDS011;21687;48.900;9.188;2023-02-16T11:58:39;10.20;;;7.07;;
35578;SDS011;21687;48.900;9.188;2023-02-16T12:06:42;10.13;;;6.23;;
35578;SDS011;21687;48.900;9.188;2023-02-16T12:09:23;8.53;;;5.77;;
35578;SDS011;21687;48.900;9.188;2023-02-16T12:12:13;7.47;;;5.40;;
35578;SDS011;21687;48.900;9.188;2023-02-16T12:20:34;11.10;;;5.53;;
35578;SDS011;21687;48.900;9.188;2023-02-16T12:26:49;8.43;;;5.93;;
35578;SDS011;21687;48.900;9.188;2023-02-16T12:35:21;10.10;;;5.97;;
35578;SDS011;21687;48.900;9.188;2023-02-16T12:38:06;10.23;;;5.80;;
35578;SDS011;21687;48.900;9.188;2023-02-16T12:43:31;11.33;;;6.70;;
35578;SDS011;21687;48.900;9.188;2023-02-16T12:46:19;14.63;;;8.20;;
35578;SDS011;21687;48.900;9.188;2023-02-16T12:51:29;11.33;;;7.30;;
35578;SDS011;21687;48.900;9.188;2023-02-16T12:57:04;12.07;;;7.17;;
35578;SDS011;21687;48.900;9.188;2023-02-16T12:59:37;9.80;;;7.30;;
35578;SDS011;21687;48.900;9.188;2023-02-16T13:02:18;12.77;;;7.60;;
35578;SDS011;21687;48.900;9.188;2023-02-16T13:08:05;10.70;;;6.97;;
35578;SDS011;21687;48.900;9.188;2023-02-16T13:10:54;9.87;;;6.73;;
35578;SDS011;21687;48.900;9.188;2023-02-16T13:13:31;14.57;;;7.23;;
35578;SDS011;21687;48.900;9.188;2023-02-16T13:18:27;14.23;;;6.67;;
35578;SDS011;21687;48.900;9.188;2023-02-16T13:24:10;8.00;;;5.80;;
35578;SDS011;21687;48.900;9.188;2023-02-16T13:27:18;22.13;;;9.07;;
35578;SDS011;21687;48.900;9.188;2023-02-16T13:29:59;11.40;;;7.00;;
35578;SDS011;21687;48.900;9.188;2023-02-16T13:38:35;8.77;;;6.73;;
35578;SDS011;21687;48.900;9.188;2023-02-16T13:44:06;9.53;;;6.13;;
35578;SDS011;21687;48.900;9.188;2023-02-16T13:46:39;7.87;;;5.60;;
35578;SDS011;21687;48.900;9.188;2023-02-16T13:49:26;8.27;;;6.23;;
35578;SDS011;21687;48.900;9.188;2023-02-16T13:51:57;10.90;;;5.73;;
35578;SDS011;21687;48.900;9.188;2023-02-16T13:54:32;9.83;;;6.80;;
35578;SDS011;21687;48.900;9.188;2023-02-16T13:57:01;7.43;;;5.47;;
35578;SDS011;21687;48.900;9.188;2023-02-16T13:59:46;10.70;;;5.90;;
35578;SDS011;21687;48.900;9.188;2023-02-16T14:02:14;9.93;;;6.60;;
35578;SDS011;21687;48.900;9.188;2023-02-16T14:05:20;10.17;;;6.20;;
35578;SDS011;21687;48.900;9.188;2023-02-16T14:08:07;10.07;;;6.47;;
35578;SDS011;21687;48.900;9.188;2023-02-16T14:13:33;11.57;;;6.27;;
35578;SDS011;21687;48.900;9.188;2023-02-16T14:16:11;7.80;;;6.33;;
35578;SDS011;21687;48.900;9.188;2023-02-16T14:21:35;7.87;;;5.27;;
35578;SDS011;21687;48.900;9.188;2023-02-16T14:24:30;11.47;;;5.30;;
35578;SDS011;21687;48.900;9.188;2023-02-16T14:27:03;6.57;;;5.13;;
35578;SDS011;21687;48.900;9.188;2023-02-16T14:29:43;6.03;;;4.43;;
35578;SDS011;21687;48.900;9.188;2023-02-16T14:32:21;6.87;;;5.03;;
35578;SDS011;21687;48.900;9.188;2023-02-16T14:34:57;6.80;;;4.50;;
35578;SDS011;21687;48.900;9.188;2023-02-16T14:37:35;6.80;;;4.20;;
35578;SDS011;21687;48.900;9.188;2023-02-16T14:40:16;5.87;;;4.20;;
35578;SDS011;21687;48.900;9.188;2023-02-16T14:42:47;7.13;;;4.00;;
35578;SDS011;21687;48.900;9.188;2023-02-16T14:48:17;5.40;;;3.47;;
35578;SDS011;21687;48.900;9.188;2023-02-16T14:50:56;7.63;;;3.70;;
35578;SDS011;21687;48.900;9.188;2023-02-16T14:59:15;4.13;;;3.47;;
35578;SDS011;21687;48.900;9.188;2023-02-16T15:01:52;6.17;;;3.90;;
35578;SDS011;21687;48.900;9.188;2023-02-16T15:04:28;6.07;;;3.40;;
35578;SDS011;21687;48.900;9.188;2023-02-16T15:06:57;5.60;;;3.67;;
35578;SDS011;21687;48.900;9.188;2023-02-16T15:09:30;5.07;;;3.30;;
35578;SDS011;21687;48.900;9.188;2023-02-16T15:12:01;3.70;;;3.20;;
35578;SDS011;21687;48.900;9.188;2023-02-16T15:14:59;5.77;;;3.40;;
35578;SDS011;21687;48.900;9.188;2023-02-16T15:17:43;8.87;;;4.00;;
35578;SDS011;21687;48.900;9.188;2023-02-16T15:22:56;6.20;;;3.80;;
35578;SDS011;21687;48.900;9.188;2023-02-16T15:25:41;6.87;;;4.17;;
35578;SDS011;21687;48.900;9.188;2023-02-16T15:28:17;6.10;;;4.17;;
35578;SDS011;21687;48.900;9.188;2023-02-16T15:30:56;7.17;;;4.53;;
35578;SDS011;21687;48.900;9.188;2023-02-16T15:38:22;7.60;;;4.47;;
35578;SDS011;21687;48.900;9.188;2023-02-16T15:40:57;6.43;;;4.13;;
35578;SDS011;21687;48.900;9.188;2023-02-16T15:46:13;6.07;;;4.70;;
35578;SDS011;21687;48.900;9.188;2023-02-16T15:48:47;10.43;;;5.00;;
35578;SDS011;21687;48.900;9.188;2023-02-16T15:51:21;6.00;;;4.80;;
35578;SDS011;21687;48.900;9.188;2023-02-16T15:56:38;9.20;;;5.07;;
35578;SDS011;21687;48.900;9.188;2023-02-16T15:59:18;6.70;;;4.30;;
35578;SDS011;21687;48.900;9.188;2023-02-16T16:02:21;8.60;;;4.50;;
35578;SDS011;21687;48.900;9.188;2023-02-16T16:04:55;8.30;;;5.30;;
35578;SDS011;21687;48.900;9.188;2023-02-16T16:07:25;6.83;;;4.90;;
35578;SDS011;21687;48.900;9.188;2023-02-16T16:10:00;9.57;;;5.83;;
35578;SDS011;21687;48.900;9.188;2023-02-16T16:12:33;10.43;;;6.40;;
35578;SDS011;21687;48.900;9.188;2023-02-16T16:15:01;9.93;;;6.17;;
35578;SDS011;21687;48.900;9.188;2023-02-16T16:17:30;13.90;;;7.23;;
35578;SDS011;21687;48.900;9.188;2023-02-16T16:20:16;11.53;;;6.87;;
35578;SDS011;21687;48.900;9.188;2023-02-16T16:22:53;12.73;;;7.60;;
35578;SDS011;21687;48.900;9.188;2023-02-16T16:28:09;12.97;;;8.77;;
35578;SDS011;21687;48.900;9.188;2023-02-16T16:30:38;15.67;;;7.43;;
35578;SDS011;21687;48.900;9.188;2023-02-16T16:33:13;15.17;;;8.20;;
35578;SDS011;21687;48.900;9.188;2023-02-16T16:35:40;11.37;;;7.80;;
35578;SDS011;21687;48.900;9.188;2023-02-16T16:38:23;13.93;;;8.63;;
35578;SDS011;21687;48.900;9.188;2023-02-16T16:40:55;17.27;;;8.10;;
35578;SDS011;21687;48.900;9.188;2023-02-16T16:43:25;13.40;;;7.50;;
35578;SDS011;21687;48.900;9.188;2023-02-16T16:45:56;10.77;;;7.27;;
35578;SDS011;21687;48.900;9.188;2023-02-16T16:48:32;13.30;;;7.87;;
35578;SDS011;21687;48.900;9.188;2023-02-16T16:51:07;12.70;;;7.03;;
35578;SDS011;21687;48.900;9.188;2023-02-16T16:53:49;14.27;;;5.93;;
35578;SDS011;21687;48.900;9.188;2023-02-16T16:56:18;10.47;;;5.87;;
35578;SDS011;21687;48.900;9.188;2023-02-16T16:58:49;7.03;;;5.43;;
35578;SDS011;21687;48.900;9.188;2023-02-16T17:01:17;9.73;;;5.67;;
35578;SDS011;21687;48.900;9.188;2023-02-16T17:03:44;9.53;;;5.13;;
35578;SDS011;21687;48.900;9.188;2023-02-16T17:06:12;8.37;;;5.20;;
35578;SDS011;21687;48.900;9.188;2023-02-16T17:08:38;6.63;;;4.93;;
35578;SDS011;21687;48.900;9.188;2023-02-16T17:11:06;6.33;;;4.50;;
35578;SDS011;21687;48.900;9.188;2023-02-16T17:13:37;8.43;;;4.90;;
35578;SDS011;21687;48.900;9.188;2023-02-16T17:16:09;6.33;;;4.97;;
35578;SDS011;21687;48.900;9.188;2023-02-16T17:18:42;10.63;;;5.60;;
35578;SDS011;21687;48.900;9.188;2023-02-16T17:21:11;12.67;;;6.30;;
35578;SDS011;21687;48.900;9.188;2023-02-16T17:23:37;28.90;;;13.40;;